createdAt,value
2018-12-21T00:02:19.286Z,100357.05
2018-12-21T00:04:48.533Z,100346.89
2018-12-21T00:07:17.866Z,100337.30
2018-12-21T00:09:47.159Z,100340.12
2018-12-21T00:12:16.691Z,100337.70
2018-12-21T00:14:45.801Z,100330.47
2018-12-21T00:17:15.155Z,100333.68
2018-12-21T00:19:44.509Z,100328.22
2018-12-21T00:22:13.712Z,100319.41
2018-12-21T00:24:43.260Z,100325.26
2018-12-21T00:27:12.663Z,100323.83
2018-12-21T00:29:41.978Z,100321.84
2018-12-21T00:32:16.271Z,100321.09
2018-12-21T00:34:50.744Z,100322.89
2018-12-21T00:37:25.391Z,100311.96
2018-12-21T00:39:59.720Z,100323.95
2018-12-21T00:42:53.191Z,100326.25
2018-12-21T00:45:27.044Z,100319.92
2018-12-21T00:47:56.517Z,100320.78
2018-12-21T00:50:25.868Z,100314.93
2018-12-21T00:52:55.429Z,100308.89
2018-12-21T00:55:24.831Z,100307.18
2018-12-21T00:57:54.219Z,100304.05
2018-12-21T01:00:26.071Z,100300.63
2018-12-21T01:02:55.523Z,100302.94
2018-12-21T01:05:25.008Z,100292.63
2018-12-21T01:07:54.512Z,100295.44
2018-12-21T01:10:24.081Z,100292.01
2018-12-21T01:12:53.780Z,100277.49
2018-12-21T01:15:23.201Z,100276.72
2018-12-21T01:17:52.630Z,100278.44
2018-12-21T01:20:22.696Z,100283.09
2018-12-21T01:22:52.143Z,100276.86
2018-12-21T01:25:21.532Z,100267.67
2018-12-21T01:27:50.597Z,100276.23
2018-12-21T01:30:20.023Z,100279.88
2018-12-21T01:32:49.483Z,100278.08
2018-12-21T01:35:18.999Z,100275.96
2018-12-21T01:37:48.416Z,100283.11
2018-12-21T01:40:17.819Z,100272.18
2018-12-21T01:42:47.177Z,100279.66
2018-12-21T01:45:16.664Z,100291.45
2018-12-21T01:47:46.195Z,100289.19
2018-12-21T01:50:15.824Z,100282.34
2018-12-21T01:52:45.159Z,100275.91
2018-12-21T01:55:14.366Z,100290.61
2018-12-21T01:57:43.815Z,100288.72
2018-12-21T02:00:13.071Z,100290.20
2018-12-21T02:02:42.468Z,100280.94
2018-12-21T02:05:11.698Z,100280.80
2018-12-21T02:07:40.964Z,100276.17
2018-12-21T02:10:10.273Z,100270.75
2018-12-21T02:12:39.800Z,100266.78
2018-12-21T02:15:14.587Z,100261.64
2018-12-21T02:17:43.850Z,100255.31
2018-12-21T02:20:13.123Z,100251.34
2018-12-21T02:22:42.692Z,100242.06
2018-12-21T02:25:12.036Z,100238.98
2018-12-21T02:27:41.183Z,100239.45
2018-12-21T02:30:10.664Z,100233.94
2018-12-21T02:32:39.996Z,100226.65
2018-12-21T02:35:09.319Z,100221.47
2018-12-21T02:37:38.580Z,100221.97
2018-12-21T02:40:08.335Z,100214.78
2018-12-21T02:42:38.108Z,100209.83
2018-12-21T02:45:08.695Z,100210.55
2018-12-21T02:47:38.280Z,100209.28
2018-12-21T02:50:07.686Z,100194.83
2018-12-21T02:52:37.166Z,100202.83
2018-12-21T02:55:06.945Z,100192.41
2018-12-21T02:57:36.805Z,100194.31
2018-12-21T03:00:07.139Z,100193.34
2018-12-21T03:02:36.375Z,100191.11
2018-12-21T03:05:05.844Z,100182.84
2018-12-21T03:07:35.311Z,100174.03
2018-12-21T03:10:04.947Z,100161.80
2018-12-21T03:12:34.656Z,100154.42
2018-12-21T03:15:04.667Z,100156.16
2018-12-21T03:17:34.069Z,100150.31
2018-12-21T03:20:03.704Z,100143.11
2018-12-21T03:22:32.967Z,100133.52
2018-12-21T03:25:02.296Z,100124.38
2018-12-21T03:27:31.599Z,100132.32
2018-12-21T03:30:00.965Z,100116.23
2018-12-21T03:32:30.312Z,100110.53
2018-12-21T03:34:59.672Z,100106.52
2018-12-21T03:37:28.772Z,100103.49
2018-12-21T03:39:58.126Z,100094.78
2018-12-21T03:42:27.628Z,100101.46
2018-12-21T03:44:57.091Z,100095.53
2018-12-21T03:47:26.402Z,100077.70
2018-12-21T03:49:55.783Z,100075.90
2018-12-21T03:52:25.088Z,100077.77
2018-12-21T03:54:54.391Z,100080.31
2018-12-21T03:57:23.793Z,100083.23
2018-12-21T03:59:53.299Z,100074.77
2018-12-21T04:02:22.629Z,100069.58
2018-12-21T04:04:51.923Z,100073.77
2018-12-21T04:07:21.211Z,100065.81
2018-12-21T04:09:50.528Z,100052.19
2018-12-21T04:12:20.148Z,100041.41
2018-12-21T04:14:49.611Z,100041.39
2018-12-21T04:17:19.067Z,100035.90
2018-12-21T04:19:48.359Z,100032.01
2018-12-21T04:22:17.821Z,100026.05
2018-12-21T04:24:47.210Z,100028.88
2018-12-21T04:27:16.392Z,100025.14
2018-12-21T04:29:45.743Z,100021.05
2018-12-21T04:32:15.072Z,100017.50
2018-12-21T04:34:44.519Z,100008.52
2018-12-21T04:37:14.150Z,100011.98
2018-12-21T04:39:43.546Z,100010.18
2018-12-21T04:42:12.908Z,100010.63
2018-12-21T04:44:42.295Z,100009.72
2018-12-21T04:47:11.600Z,100004.91
2018-12-21T04:49:40.888Z,99997.97
2018-12-21T04:52:10.115Z,100002.19
2018-12-21T04:54:39.361Z,100004.62
2018-12-21T04:57:08.845Z,99998.88
2018-12-21T04:59:38.135Z,99996.26
2018-12-21T05:02:07.413Z,99984.02
2018-12-21T05:04:37.016Z,99987.30
2018-12-21T05:07:12.409Z,99984.51
2018-12-21T05:09:38.293Z,99981.61
2018-12-21T05:12:07.856Z,99993.02
2018-12-21T05:14:37.489Z,99985.22
2018-12-21T05:17:07.301Z,99979.73
2018-12-21T05:19:36.527Z,99964.78
2018-12-21T05:22:05.584Z,99957.94
2018-12-21T05:24:34.786Z,99949.48
2018-12-21T05:27:03.839Z,99948.56
2018-12-21T05:29:32.957Z,99932.25
2018-12-21T05:32:02.054Z,99929.86
2018-12-21T05:34:31.521Z,99922.11
2018-12-21T05:37:00.901Z,99925.22
2018-12-21T05:39:30.283Z,99916.95
2018-12-21T05:41:59.455Z,99919.16
2018-12-21T05:44:28.816Z,99904.44
2018-12-21T05:46:58.052Z,99893.81
2018-12-21T05:49:27.259Z,99885.14
2018-12-21T05:51:56.404Z,99880.02
2018-12-21T05:54:25.568Z,99883.81
2018-12-21T05:56:54.799Z,99872.59
2018-12-21T05:59:23.947Z,99867.70
2018-12-21T06:01:53.139Z,99857.44
2018-12-21T06:04:22.376Z,99849.63
2018-12-21T06:06:51.632Z,99846.19
2018-12-21T06:09:20.782Z,99838.00
2018-12-21T06:11:49.947Z,99833.73
2018-12-21T06:14:19.066Z,99822.66
2018-12-21T06:16:48.232Z,99821.45
2018-12-21T06:19:17.350Z,99821.76
2018-12-21T06:21:46.669Z,99818.48
2018-12-21T06:24:16.131Z,99808.11
2018-12-21T06:26:45.120Z,99802.94
2018-12-21T06:29:14.441Z,99809.66
2018-12-21T06:31:43.653Z,99801.33
2018-12-21T06:34:13.107Z,99797.48
2018-12-21T06:36:42.425Z,99794.67
2018-12-21T06:39:11.672Z,99794.73
2018-12-21T06:41:40.811Z,99788.80
2018-12-21T06:44:10.228Z,99788.45
2018-12-21T06:46:39.403Z,99776.62
2018-12-21T06:49:08.671Z,99775.91
2018-12-21T06:51:38.247Z,99757.03
2018-12-21T06:54:07.395Z,99759.95
2018-12-21T06:56:36.636Z,99758.88
2018-12-21T06:59:05.700Z,99748.58
2018-12-21T07:01:35.026Z,99741.34
2018-12-21T07:04:04.088Z,99742.64
2018-12-21T07:06:33.244Z,99738.11
2018-12-21T07:09:02.582Z,99722.22
2018-12-21T07:11:31.917Z,99715.28
2018-12-21T07:14:01.164Z,99716.33
2018-12-21T07:16:30.401Z,99705.31
2018-12-21T07:18:59.717Z,99698.64
2018-12-21T07:21:28.854Z,99695.89
2018-12-21T07:23:58.097Z,99688.47
2018-12-21T07:26:27.169Z,99683.31
2018-12-21T07:28:56.315Z,99685.20
2018-12-21T07:31:25.607Z,99679.63
2018-12-21T07:33:54.807Z,99680.65
2018-12-21T07:36:24.039Z,99679.32
2018-12-21T07:38:53.383Z,99655.22
2018-12-21T07:41:23.002Z,99662.34
2018-12-21T07:43:52.399Z,99657.30
2018-12-21T07:46:21.790Z,99655.80
2018-12-21T07:48:51.053Z,99654.18
2018-12-21T07:51:20.267Z,99652.62
2018-12-21T07:53:49.413Z,99651.09
2018-12-21T07:56:18.525Z,99648.23
2018-12-21T07:58:56.790Z,99643.90
2018-12-21T08:01:19.847Z,99637.89
2018-12-21T08:03:49.381Z,99629.98
2018-12-21T08:06:19.118Z,99621.17
2018-12-21T08:08:48.192Z,99615.02
2018-12-21T08:11:17.272Z,99601.58
2018-12-21T08:13:46.479Z,99598.23
2018-12-21T08:16:15.564Z,99597.03
2018-12-21T08:18:44.865Z,99593.62
2018-12-21T08:21:14.135Z,99592.94
2018-12-21T08:23:44.339Z,99587.89
2018-12-21T08:26:13.917Z,99592.92
2018-12-21T08:28:43.115Z,99594.86
2018-12-21T08:31:12.460Z,99584.89
2018-12-21T08:33:41.675Z,99576.57
2018-12-21T08:36:10.744Z,99570.37
2018-12-21T08:38:39.936Z,99567.32
2018-12-21T08:41:09.299Z,99552.92
2018-12-21T08:43:38.544Z,99547.97
2018-12-21T08:46:07.593Z,99541.28
2018-12-21T08:48:36.928Z,99546.55
2018-12-21T08:51:06.411Z,99533.20
2018-12-21T08:53:35.611Z,99520.22
2018-12-21T08:56:04.793Z,99520.46
2018-12-21T08:58:33.928Z,99510.44
2018-12-21T09:01:03.159Z,99515.03
2018-12-21T09:03:32.289Z,99503.49
2018-12-21T09:06:01.248Z,99494.88
2018-12-21T09:08:30.305Z,99486.66
2018-12-21T09:10:59.308Z,99478.05
2018-12-21T09:13:28.328Z,99456.23
2018-12-21T09:15:57.436Z,99457.55
2018-12-21T09:18:26.423Z,99454.95
2018-12-21T09:20:55.492Z,99454.18
2018-12-21T09:23:24.737Z,99451.19
2018-12-21T09:25:53.859Z,99462.42
2018-12-21T09:28:22.997Z,99473.34
2018-12-21T09:30:52.380Z,99452.81
2018-12-21T09:33:21.687Z,99448.83
2018-12-21T09:35:50.809Z,99455.09
2018-12-21T09:38:19.802Z,99451.19
2018-12-21T09:40:48.926Z,99440.82
2018-12-21T09:43:18.152Z,99447.13
2018-12-21T09:45:47.228Z,99440.77
2018-12-21T09:48:17.032Z,99426.47
2018-12-21T09:50:46.398Z,99436.29
2018-12-21T09:53:15.588Z,99431.73
2018-12-21T09:55:44.880Z,99425.36
2018-12-21T09:58:13.930Z,99431.53
2018-12-21T10:00:43.125Z,99421.83
2018-12-21T10:03:12.492Z,99420.03
2018-12-21T10:05:42.204Z,99424.09
2018-12-21T10:08:11.260Z,99418.70
2018-12-21T10:10:41.236Z,99409.15
2018-12-21T10:13:10.524Z,99403.97
2018-12-21T10:15:39.628Z,99398.28
2018-12-21T10:18:08.836Z,99402.16
2018-12-21T10:20:38.140Z,99403.30
2018-12-21T10:23:07.456Z,99398.73
2018-12-21T10:25:36.664Z,99398.30
2018-12-21T10:28:05.864Z,99390.80
2018-12-21T10:30:35.188Z,99390.02
2018-12-21T10:33:04.441Z,99369.09
2018-12-21T10:35:33.536Z,99366.14
2018-12-21T10:38:03.147Z,99379.05
2018-12-21T10:40:32.698Z,99388.09
2018-12-21T10:43:01.858Z,99383.22
2018-12-21T10:45:31.045Z,99382.25
2018-12-21T10:48:00.246Z,99378.34
2018-12-21T10:50:29.770Z,99376.61
2018-12-21T10:52:59.106Z,99372.50
2018-12-21T10:55:28.337Z,99366.61
2018-12-21T10:57:57.454Z,99366.36
2018-12-21T11:00:26.992Z,99364.30
2018-12-21T11:02:56.587Z,99361.04
2018-12-21T11:05:25.866Z,99354.19
2018-12-21T11:07:55.508Z,99346.48
2018-12-21T11:10:25.017Z,99353.70
2018-12-21T11:12:54.283Z,99333.89
2018-12-21T11:15:23.579Z,99338.88
2018-12-21T11:17:53.083Z,99326.95
2018-12-21T11:20:22.415Z,99324.62
2018-12-21T11:22:51.704Z,99332.11
2018-12-21T11:25:21.845Z,99324.67
2018-12-21T11:27:51.242Z,99323.95
2018-12-21T11:30:20.611Z,99335.00
2018-12-21T11:32:50.164Z,99338.05
2018-12-21T11:35:19.420Z,99326.06
2018-12-21T11:37:48.756Z,99326.73
2018-12-21T11:40:17.964Z,99330.80
2018-12-21T11:42:47.373Z,99321.59
2018-12-21T11:45:16.879Z,99329.27
2018-12-21T11:47:46.276Z,99329.13
2018-12-21T11:50:15.472Z,99321.59
2018-12-21T11:52:44.809Z,99329.66
2018-12-21T11:55:14.004Z,99317.52
2018-12-21T11:57:43.348Z,99318.02
2018-12-21T12:00:12.624Z,99311.16
2018-12-21T12:02:41.860Z,99298.68
2018-12-21T12:05:11.121Z,99309.33
2018-12-21T12:07:40.487Z,99309.16
2018-12-21T12:10:09.999Z,99311.48
2018-12-21T12:12:39.435Z,99312.83
2018-12-21T12:15:09.114Z,99310.50
2018-12-21T12:17:38.268Z,99320.33
2018-12-21T12:20:07.803Z,99313.34
2018-12-21T12:22:36.947Z,99315.83
2018-12-21T12:25:06.414Z,99294.99
2018-12-21T12:27:35.512Z,99301.83
2018-12-21T12:30:05.142Z,99305.47
2018-12-21T12:32:34.251Z,99298.97
2018-12-21T12:35:04.061Z,99312.18
2018-12-21T12:37:33.551Z,99298.17
2018-12-21T12:40:02.889Z,99298.16
2018-12-21T12:42:32.248Z,99300.83
2018-12-21T12:45:01.570Z,99289.82
2018-12-21T12:47:30.821Z,99286.00
2018-12-21T12:50:00.381Z,99281.98
2018-12-21T12:52:29.888Z,99288.33
2018-12-21T12:55:02.816Z,99296.17
2018-12-21T12:57:30.604Z,99287.00
2018-12-21T13:00:00.271Z,99285.83
2018-12-21T13:02:29.829Z,99279.82
2018-12-21T13:04:59.272Z,99272.33
2018-12-21T13:07:28.739Z,99283.97
2018-12-21T13:09:58.056Z,99287.80
2018-12-21T13:12:27.312Z,99281.14
2018-12-21T13:14:56.757Z,99285.50
2018-12-21T13:17:26.143Z,99276.48
2018-12-21T13:19:55.471Z,99273.30
2018-12-21T13:22:25.068Z,99278.81
2018-12-21T13:24:54.478Z,99274.48
2018-12-21T13:27:23.776Z,99274.97
2018-12-21T13:29:53.080Z,99269.77
2018-12-21T13:32:22.477Z,99270.80
2018-12-21T13:34:51.904Z,99274.98
2018-12-21T13:37:21.056Z,99263.97
2018-12-21T13:39:50.356Z,99263.45
2018-12-21T13:42:19.798Z,99272.79
2018-12-21T13:44:49.043Z,99282.32
2018-12-21T13:47:18.295Z,99275.30
2018-12-21T13:49:47.466Z,99280.42
2018-12-21T13:52:16.565Z,99283.13
2018-12-21T13:54:45.793Z,99290.69
2018-12-21T13:57:15.136Z,99295.34
2018-12-21T13:59:44.572Z,99297.44
2018-12-21T14:02:14.240Z,99289.50
2018-12-21T14:04:43.492Z,99297.16
2018-12-21T14:07:12.764Z,99298.48
2018-12-21T14:09:42.216Z,99289.42
2018-12-21T14:12:11.561Z,99289.50
2018-12-21T14:14:40.874Z,99305.30
2018-12-21T14:17:10.198Z,99294.74
2018-12-21T14:19:39.571Z,99310.22
2018-12-21T14:22:08.979Z,99324.09
2018-12-21T14:24:38.364Z,99315.78
2018-12-21T14:27:07.551Z,99320.73
2018-12-21T14:29:38.881Z,99336.25
2018-12-21T14:32:08.304Z,99336.88
2018-12-21T14:34:37.716Z,99335.20
2018-12-21T14:37:07.077Z,99342.02
2018-12-21T14:39:36.548Z,99348.41
2018-12-21T14:42:05.691Z,99346.63
2018-12-21T14:44:35.166Z,99348.36
2018-12-21T14:47:04.779Z,99343.16
2018-12-21T14:49:33.962Z,99363.31
2018-12-21T14:52:04.106Z,99354.02
2018-12-21T14:54:33.381Z,99350.17
2018-12-21T14:57:02.668Z,99353.50
2018-12-21T14:59:31.836Z,99355.66
2018-12-21T15:02:01.108Z,99353.30
2018-12-21T15:04:30.365Z,99365.72
2018-12-21T15:06:59.757Z,99358.52
2018-12-21T15:09:29.233Z,99376.50
2018-12-21T15:11:58.721Z,99376.20
2018-12-21T15:14:27.923Z,99377.14
2018-12-21T15:16:57.147Z,99398.63
2018-12-21T15:19:26.391Z,99395.71
2018-12-21T15:21:57.392Z,99386.12
2018-12-21T15:24:27.093Z,99364.88
2018-12-21T15:26:56.381Z,99362.45
2018-12-21T15:29:25.623Z,99366.79
2018-12-21T15:31:54.805Z,99366.59
2018-12-21T15:34:24.098Z,99368.27
2018-12-21T15:36:53.267Z,99368.89
2018-12-21T15:39:22.647Z,99370.69
2018-12-21T15:41:51.892Z,99374.39
2018-12-21T15:44:21.282Z,99363.62
2018-12-21T15:46:50.476Z,99368.34
2018-12-21T15:49:19.986Z,99375.46
2018-12-21T15:51:49.211Z,99374.24
2018-12-21T15:54:18.443Z,99371.09
2018-12-21T15:56:48.047Z,99386.72
2018-12-21T15:59:17.412Z,99389.11
2018-12-21T16:01:46.728Z,99386.98
2018-12-21T16:04:16.371Z,99387.09
2018-12-21T16:06:45.467Z,99397.03
2018-12-21T16:09:14.864Z,99393.00
2018-12-21T16:11:44.124Z,99402.26
2018-12-21T16:14:13.360Z,99401.88
2018-12-21T16:16:42.611Z,99406.02
2018-12-21T16:19:11.777Z,99406.31
2018-12-21T16:21:41.264Z,99400.94
2018-12-21T16:24:11.208Z,99402.92
2018-12-21T16:26:40.988Z,99401.91
2018-12-21T16:29:10.702Z,99413.89
2018-12-21T16:31:39.908Z,99422.17
2018-12-21T16:34:09.208Z,99422.36
2018-12-21T16:36:38.339Z,99425.72
2018-12-21T16:39:08.559Z,99423.15
2018-12-21T16:41:37.891Z,99419.03
2018-12-21T16:44:07.281Z,99433.57
2018-12-21T16:46:36.619Z,99421.20
2018-12-21T16:49:06.022Z,99426.16
2018-12-21T16:51:35.263Z,99424.59
2018-12-21T16:54:04.436Z,99443.66
2018-12-21T16:56:34.032Z,99432.30
2018-12-21T16:59:03.739Z,99432.54
2018-12-21T17:01:32.947Z,99424.33
2018-12-21T17:04:02.251Z,99425.79
2018-12-21T17:06:31.447Z,99428.69
2018-12-21T17:09:00.632Z,99426.26
2018-12-21T17:11:35.775Z,99429.41
2018-12-21T17:14:04.992Z,99422.20
2018-12-21T17:16:34.143Z,99426.69
2018-12-21T17:19:07.693Z,99430.52
2018-12-21T17:21:37.263Z,99430.19
2018-12-21T17:24:06.620Z,99431.02
2018-12-21T17:26:37.632Z,99432.06
2018-12-21T17:29:06.913Z,99428.52
2018-12-21T17:31:36.624Z,99442.83
2018-12-21T17:34:06.128Z,99440.72
2018-12-21T17:36:35.592Z,99431.73
2018-12-21T17:39:06.513Z,99444.41
2018-12-21T17:41:35.709Z,99438.55
2018-12-21T17:44:05.687Z,99452.96
2018-12-21T17:46:35.032Z,99452.00
2018-12-21T17:49:04.279Z,99462.70
2018-12-21T17:51:33.555Z,99468.84
2018-12-21T17:54:04.814Z,99478.87
2018-12-21T17:56:34.283Z,99488.95
2018-12-21T17:59:04.295Z,99487.94
2018-12-21T18:01:35.055Z,99483.25
2018-12-21T18:04:21.914Z,99476.84
2018-12-21T18:06:51.310Z,99484.55
2018-12-21T18:09:20.804Z,99501.28
2018-12-21T18:11:57.204Z,99485.27
2018-12-21T18:14:21.459Z,99510.91
2018-12-21T18:16:50.531Z,99511.98
2018-12-21T18:19:19.818Z,99530.32
2018-12-21T18:21:58.203Z,99526.31
2018-12-21T18:24:28.875Z,99525.36
2018-12-21T18:26:58.360Z,99534.05
2018-12-21T18:29:28.101Z,99536.37
2018-12-21T18:32:04.523Z,99538.03
2018-12-21T18:34:36.478Z,99547.11
2018-12-21T18:37:08.215Z,99550.08
2018-12-21T18:39:37.567Z,99555.55
2018-12-21T18:42:07.013Z,99557.07
2018-12-21T18:44:36.538Z,99559.45
2018-12-21T18:47:05.972Z,99566.44
2018-12-21T18:49:35.249Z,99574.63
2018-12-21T18:52:04.487Z,99577.98
2018-12-21T18:54:33.865Z,99573.13
2018-12-21T18:57:07.124Z,99586.47
2018-12-21T18:59:36.365Z,99582.17
2018-12-21T19:02:05.522Z,99605.22
2018-12-21T19:04:35.036Z,99584.47
2018-12-21T19:07:04.267Z,99584.65
2018-12-21T19:09:33.526Z,99586.34
2018-12-21T19:12:02.835Z,99587.45
2018-12-21T19:14:32.291Z,99594.50
2018-12-21T19:17:01.533Z,99581.48
2018-12-21T19:19:30.540Z,99579.49
2018-12-21T19:21:59.938Z,99586.47
2018-12-21T19:24:29.232Z,99587.34
2018-12-21T19:26:58.395Z,99591.82
2018-12-21T19:29:27.523Z,99587.30
2018-12-21T19:31:56.680Z,99604.48
2018-12-21T19:34:25.893Z,99599.88
2018-12-21T19:36:55.031Z,99591.52
2018-12-21T19:39:24.379Z,99604.71
2018-12-21T19:41:53.724Z,99604.05
2018-12-21T19:44:22.827Z,99598.19
2018-12-21T19:46:52.049Z,99601.55
2018-12-21T19:49:21.520Z,99608.68
2018-12-21T19:51:50.617Z,99612.90
2018-12-21T19:54:22.235Z,99615.09
2018-12-21T19:57:05.829Z,99632.98
2018-12-21T19:59:35.201Z,99629.27
2018-12-21T20:02:04.394Z,99636.30
2018-12-21T20:04:33.523Z,99639.03
2018-12-21T20:07:02.749Z,99631.97
2018-12-21T20:09:32.104Z,99647.66
2018-12-21T20:12:01.326Z,99635.96
2018-12-21T20:14:31.472Z,99646.69
2018-12-21T20:17:00.617Z,99642.16
2018-12-21T20:19:29.812Z,99633.05
2018-12-21T20:21:59.252Z,99642.42
2018-12-21T20:24:33.330Z,99647.08
2018-12-21T20:27:13.376Z,99645.38
2018-12-21T20:29:38.785Z,99641.72
2018-12-21T20:32:08.320Z,99642.05
2018-12-21T20:34:38.133Z,99648.19
2018-12-21T20:37:07.331Z,99655.09
2018-12-21T20:39:38.368Z,99655.41
2018-12-21T20:42:07.549Z,99650.89
2018-12-21T20:44:36.959Z,99665.46
2018-12-21T20:47:06.408Z,99654.09
2018-12-21T20:49:35.559Z,99656.75
2018-12-21T20:52:04.856Z,99657.94
2018-12-21T20:54:34.117Z,99650.41
2018-12-21T20:57:04.183Z,99645.73
2018-12-21T20:59:33.764Z,99650.71
2018-12-21T21:02:02.921Z,99656.77
2018-12-21T21:04:32.195Z,99658.09
2018-12-21T21:07:01.527Z,99665.28
2018-12-21T21:09:30.656Z,99670.47
2018-12-21T21:11:59.884Z,99669.94
2018-12-21T21:14:28.872Z,99686.23
2018-12-21T21:16:58.027Z,99677.18
2018-12-21T21:19:29.651Z,99680.82
2018-12-21T21:21:58.753Z,99679.00
2018-12-21T21:24:27.916Z,99681.53
2018-12-21T21:26:56.987Z,99686.49
2018-12-21T21:29:26.432Z,99683.56
2018-12-21T21:31:55.814Z,99683.56
2018-12-21T21:34:24.905Z,99694.08
2018-12-21T21:36:54.024Z,99689.03
2018-12-21T21:39:24.569Z,99688.01
2018-12-21T21:41:53.931Z,99695.38
2018-12-21T21:44:23.040Z,99689.91
2018-12-21T21:46:52.267Z,99685.17
2018-12-21T21:49:21.336Z,99708.66
2018-12-21T21:51:50.364Z,99722.17
2018-12-21T21:54:19.986Z,99710.00
2018-12-21T21:56:49.259Z,99721.34
2018-12-21T21:59:18.528Z,99717.00
2018-12-21T22:01:47.760Z,99712.30
2018-12-21T22:04:16.901Z,99716.61
2018-12-21T22:06:46.024Z,99716.45
2018-12-21T22:09:15.673Z,99715.59
2018-12-21T22:11:44.744Z,99704.80
2018-12-21T22:14:14.020Z,99716.49
2018-12-21T22:16:43.201Z,99718.63
2018-12-21T22:19:12.715Z,99707.52
2018-12-21T22:21:42.061Z,99714.41
2018-12-21T22:24:11.455Z,99712.68
2018-12-21T22:26:40.573Z,99715.01
2018-12-21T22:29:09.723Z,99713.17
2018-12-21T22:31:39.024Z,99722.55
2018-12-21T22:34:08.272Z,99724.71
2018-12-21T22:36:37.693Z,99721.05
2018-12-21T22:39:07.491Z,99729.89
2018-12-21T22:41:36.744Z,99727.20
2018-12-21T22:44:06.291Z,99721.39
2018-12-21T22:46:35.518Z,99722.35
2018-12-21T22:49:04.751Z,99720.69
2018-12-21T22:51:34.019Z,99727.36
2018-12-21T22:54:03.555Z,99725.52
2018-12-21T22:56:33.016Z,99728.04
2018-12-21T22:59:02.300Z,99722.34
2018-12-21T23:01:31.449Z,99731.73
2018-12-21T23:04:00.855Z,99724.17
2018-12-21T23:06:30.187Z,99730.20
2018-12-21T23:08:59.704Z,99723.00
2018-12-21T23:11:29.061Z,99733.56
2018-12-21T23:13:58.400Z,99735.70
2018-12-21T23:16:27.760Z,99724.97
2018-12-21T23:18:57.104Z,99725.52
2018-12-21T23:21:26.336Z,99730.67
2018-12-21T23:23:55.580Z,99720.64
2018-12-21T23:26:24.744Z,99720.28
2018-12-21T23:28:54.028Z,99719.97
2018-12-21T23:31:23.121Z,99724.86
2018-12-21T23:33:52.408Z,99728.23
2018-12-21T23:36:21.730Z,99722.66
2018-12-21T23:38:50.869Z,99724.03
2018-12-21T23:41:20.212Z,99737.06
2018-12-21T23:43:49.448Z,99731.90
2018-12-21T23:46:18.832Z,99727.01
2018-12-21T23:48:48.084Z,99733.87
2018-12-21T23:51:17.789Z,99728.72
2018-12-21T23:53:47.268Z,99725.06
2018-12-21T23:56:17.372Z,99730.05
2018-12-21T23:58:46.716Z,99726.73
